Time;durP1;ratioP1;P1;durP2;ratioP2;P2;SDS_P1;SDS_P2;PMS_P1;PMS_P2;Temp;Humidity;BMP_temperature;BMP_pressure;BME280_temperature;BME280_humidity;BME280_pressure;Samples;Min_cycle;Max_cycle;Signal;HPM_P1;HPM_P2
2022/12/06 00:01:07;;;;;;;27.45;12.98;;;5.20;99.90;;;;;;4991580;28;19921;-81
2022/12/06 00:03:33;;;;;;;36.00;13.43;;;5.10;99.90;;;;;;4988982;28;20062;-80
2022/12/06 00:06:04;;;;;;;35.60;14.00;;;5.20;99.90;;;;;;4983332;28;20054;-80
2022/12/06 00:08:30;;;;;;;25.55;13.02;;;5.20;99.90;;;;;;4988762;28;20129;-80
2022/12/06 00:11:19;;;;;;;34.78;15.43;;;5.20;99.90;;;;;;4987784;28;20526;-80
2022/12/06 00:13:45;;;;;;;21.90;12.73;;;5.20;99.90;;;;;;4987995;28;20065;-80
2022/12/06 00:16:15;;;;;;;24.95;13.25;;;5.20;99.90;;;;;;4988251;28;20058;-80
2022/12/06 00:18:43;;;;;;;31.50;15.48;;;5.20;99.90;;;;;;4988945;28;20046;-80
2022/12/06 00:21:13;;;;;;;28.47;15.17;;;5.20;99.90;;;;;;5003503;28;20046;-80
2022/12/06 00:23:45;;;;;;;31.25;14.63;;;5.20;99.90;;;;;;4987242;28;20085;-80
2022/12/06 00:26:11;;;;;;;28.27;14.25;;;5.20;99.90;;;;;;4987928;28;20053;-80
2022/12/06 00:28:39;;;;;;;29.67;13.43;;;5.20;99.90;;;;;;4988242;28;20073;-80
2022/12/06 00:31:08;;;;;;;29.65;13.60;;;5.20;99.90;;;;;;4987040;28;20046;-81
2022/12/06 00:33:35;;;;;;;23.15;12.40;;;5.20;99.90;;;;;;4987957;28;20050;-80
2022/12/06 00:36:05;;;;;;;21.35;10.45;;;5.20;99.90;;;;;;4987981;28;20083;-80
2022/12/06 00:38:31;;;;;;;19.10;11.05;;;5.20;99.90;;;;;;4985584;28;20129;-80
2022/12/06 00:41:06;;;;;;;27.60;10.23;;;5.20;99.90;;;;;;4986760;28;20105;-81
2022/12/06 00:43:33;;;;;;;19.33;9.43;;;5.20;99.90;;;;;;4987713;28;20458;-80
2022/12/06 00:45:59;;;;;;;28.58;10.73;;;5.20;99.90;;;;;;4987355;28;20097;-80
2022/12/06 00:48:26;;;;;;;23.10;9.82;;;5.20;99.90;;;;;;4987773;28;20514;-81
2022/12/06 00:50:52;;;;;;;17.05;8.93;;;5.20;99.90;;;;;;4987992;28;20042;-80
2022/12/06 00:53:18;;;;;;;19.65;8.25;;;5.20;99.90;;;;;;4970754;28;20101;-81
2022/12/06 00:55:44;;;;;;;16.33;9.10;;;5.20;99.90;;;;;;4982259;28;20046;-81
2022/12/06 00:58:11;;;;;;;15.88;7.95;;;5.20;99.90;;;;;;4973158;28;20038;-81
2022/12/06 01:00:37;;;;;;;17.35;7.80;;;5.20;99.90;;;;;;4986927;28;20562;-81
2022/12/06 01:03:03;;;;;;;21.83;9.38;;;5.20;99.90;;;;;;4988894;28;20508;-81
2022/12/06 01:05:29;;;;;;;19.55;7.97;;;5.20;99.90;;;;;;4989894;28;20053;-81
2022/12/06 01:07:55;;;;;;;15.52;8.30;;;5.20;99.90;;;;;;4990193;28;20042;-81
2022/12/06 01:10:20;;;;;;;22.50;8.00;;;5.20;99.90;;;;;;4990059;28;20042;-81
2022/12/06 01:12:46;;;;;;;12.82;7.15;;;5.10;99.90;;;;;;4986967;28;20045;-81
2022/12/06 01:15:13;;;;;;;30.05;8.63;;;5.20;99.90;;;;;;4973271;28;20078;-81
2022/12/06 01:17:39;;;;;;;19.02;7.25;;;5.20;99.90;;;;;;4990230;28;20045;-80
2022/12/06 01:20:05;;;;;;;19.15;7.25;;;5.20;99.90;;;;;;4989218;28;20537;-80
2022/12/06 01:22:31;;;;;;;21.50;6.82;;;5.20;99.90;;;;;;4990002;28;20780;-80
2022/12/06 01:24:57;;;;;;;24.63;8.68;;;5.20;99.90;;;;;;4990002;28;20049;-80
2022/12/06 01:27:23;;;;;;;5.15;3.47;;;5.10;99.90;;;;;;4989467;28;20037;-80
2022/12/06 01:29:48;;;;;;;20.40;8.65;;;5.10;99.90;;;;;;4989712;28;20052;-80
2022/12/06 01:32:14;;;;;;;14.90;7.63;;;5.10;99.90;;;;;;4983596;28;20576;-80
2022/12/06 01:34:40;;;;;;;18.45;8.25;;;5.10;99.90;;;;;;4982559;28;20049;-80
2022/12/06 01:37:11;;;;;;;21.25;8.55;;;5.10;99.90;;;;;;4990907;28;20038;-81
2022/12/06 01:39:48;;;;;;;18.23;7.60;;;5.10;99.90;;;;;;4994288;28;20049;-80
2022/12/06 01:42:15;;;;;;;17.30;8.02;;;5.10;99.90;;;;;;4991364;28;20141;-80
2022/12/06 01:44:50;;;;;;;16.83;7.93;;;5.10;99.90;;;;;;4989190;28;20049;-80
2022/12/06 01:47:27;;;;;;;21.15;9.15;;;5.10;99.90;;;;;;4989451;28;20042;-80
2022/12/06 01:50:15;;;;;;;18.55;7.93;;;5.10;99.90;;;;;;4989001;28;20462;-80
2022/12/06 01:53:01;;;;;;;22.27;9.32;;;5.10;99.90;;;;;;4988798;28;20060;-79
2022/12/06 01:55:31;;;;;;;19.40;8.65;;;5.10;99.90;;;;;;4989764;28;20651;-79
2022/12/06 01:58:01;;;;;;;21.55;9.73;;;5.10;99.90;;;;;;4989452;28;20418;-79
2022/12/06 02:00:27;;;;;;;18.27;8.55;;;5.10;99.90;;;;;;4988302;28;20046;-79
2022/12/06 02:02:56;;;;;;;17.48;8.20;;;5.10;99.90;;;;;;4989271;28;21637;-79
2022/12/06 02:05:23;;;;;;;18.88;9.45;;;5.10;99.90;;;;;;4987360;28;20065;-79
2022/12/06 02:07:49;;;;;;;18.75;8.15;;;5.10;99.90;;;;;;4989361;28;20096;-80
2022/12/06 02:10:15;;;;;;;18.45;9.07;;;5.10;99.90;;;;;;4989560;28;20124;-79
2022/12/06 02:12:41;;;;;;;17.63;8.60;;;5.10;99.90;;;;;;4989464;28;20563;-80
2022/12/06 02:15:07;;;;;;;23.33;8.55;;;5.10;99.90;;;;;;4989160;28;20133;-80
2022/12/06 02:17:33;;;;;;;16.23;8.25;;;5.10;99.90;;;;;;4989298;28;20815;-80
2022/12/06 02:20:02;;;;;;;17.08;8.52;;;5.10;99.90;;;;;;4987899;28;20054;-79
2022/12/06 02:23:14;;;;;;;14.45;6.43;;;5.10;99.90;;;;;;4989457;28;20046;-80
2022/12/06 02:25:57;;;;;;;13.18;7.50;;;5.00;99.90;;;;;;4934698;28;20547;-79
2022/12/06 02:28:37;;;;;;;10.10;5.35;;;5.10;99.90;;;;;;4988514;28;20522;-79
2022/12/06 02:31:21;;;;;;;14.45;6.70;;;5.10;99.90;;;;;;4988779;28;20080;-79
2022/12/06 02:34:08;;;;;;;18.67;6.82;;;5.10;99.90;;;;;;4981564;28;20077;-79
2022/12/06 02:37:06;;;;;;;19.88;7.72;;;5.00;99.90;;;;;;4970647;28;20073;-79
2022/12/06 02:39:38;;;;;;;9.75;5.47;;;5.00;99.90;;;;;;4987455;28;20057;-79
2022/12/06 02:42:12;;;;;;;9.15;5.93;;;5.00;99.90;;;;;;4985579;28;20519;-79
2022/12/06 02:44:44;;;;;;;12.27;5.65;;;5.00;99.90;;;;;;4976101;28;20369;-79
2022/12/06 02:47:11;;;;;;;11.85;5.88;;;5.00;99.90;;;;;;4991601;28;20116;-79
2022/12/06 02:49:43;;;;;;;15.30;5.03;;;5.00;99.90;;;;;;4976220;28;20057;-79
2022/12/06 02:52:11;;;;;;;17.17;6.97;;;5.00;99.90;;;;;;4991706;28;20057;-79
2022/12/06 02:54:38;;;;;;;8.93;5.13;;;5.00;99.90;;;;;;4988999;28;20052;-79
2022/12/06 02:57:04;;;;;;;14.95;5.03;;;5.00;99.90;;;;;;4992423;28;20598;-79
2022/12/06 02:59:30;;;;;;;10.48;5.45;;;5.00;99.90;;;;;;4992537;28;20049;-79
2022/12/06 03:02:00;;;;;;;14.05;5.15;;;5.00;99.90;;;;;;4992571;28;20132;-79
2022/12/06 03:05:00;;;;;;;12.20;5.18;;;5.00;99.90;;;;;;4991834;28;20097;-79
2022/12/06 03:07:45;;;;;;;17.48;5.85;;;5.00;99.90;;;;;;4992136;28;20418;-79
2022/12/06 03:10:20;;;;;;;9.70;5.00;;;5.00;99.90;;;;;;4990017;28;20514;-79
2022/12/06 03:12:51;;;;;;;6.95;4.78;;;5.00;99.90;;;;;;4992069;28;20041;-79
2022/12/06 03:15:42;;;;;;;13.10;5.20;;;5.00;99.90;;;;;;4992401;28;20069;-79
2022/12/06 03:18:31;;;;;;;11.30;5.22;;;5.00;99.90;;;;;;4991663;28;20053;-79
2022/12/06 03:21:09;;;;;;;7.85;4.85;;;5.00;99.90;;;;;;4991687;28;20057;-79
2022/12/06 03:23:40;;;;;;;9.23;4.70;;;4.90;99.90;;;;;;4989578;28;20052;-80
2022/12/06 03:26:10;;;;;;;9.65;5.00;;;4.90;99.90;;;;;;4989200;28;20096;-79
2022/12/06 03:28:37;;;;;;;5.15;4.03;;;4.90;99.90;;;;;;4996754;28;20104;-79
2022/12/06 03:31:07;;;;;;;7.68;5.15;;;4.90;99.90;;;;;;4990850;28;20046;-79
2022/12/06 03:33:36;;;;;;;9.52;5.07;;;4.90;99.90;;;;;;4991849;28;20050;-79
2022/12/06 03:36:02;;;;;;;8.18;4.40;;;4.90;99.90;;;;;;4991965;28;20499;-79
2022/12/06 03:38:39;;;;;;;8.27;3.80;;;4.90;99.90;;;;;;4991457;28;20049;-80
2022/12/06 03:41:06;;;;;;;5.25;4.18;;;4.90;99.90;;;;;;4991729;28;20042;-79
2022/12/06 03:43:32;;;;;;;13.02;5.72;;;4.90;99.90;;;;;;4991188;28;20538;-80
2022/12/06 03:46:16;;;;;;;7.60;4.60;;;4.90;99.90;;;;;;4991674;28;20207;-79
2022/12/06 03:48:57;;;;;;;9.10;5.80;;;4.90;99.90;;;;;;4991840;28;20159;-79
2022/12/06 03:51:34;;;;;;;2.63;2.40;;;4.90;99.90;;;;;;4991079;28;20883;-79
2022/12/06 03:54:03;;;;;;;9.05;4.20;;;4.80;99.90;;;;;;4991422;28;20046;-79
2022/12/06 03:56:35;;;;;;;11.23;5.15;;;4.80;99.90;;;;;;4984919;28;20697;-80
2022/12/06 03:59:05;;;;;;;9.60;4.90;;;4.80;99.90;;;;;;5006616;28;20053;-78
2022/12/06 04:01:31;;;;;;;8.55;4.82;;;4.80;99.90;;;;;;4990883;28;20522;-77
2022/12/06 04:03:57;;;;;;;8.82;5.78;;;4.80;99.90;;;;;;4993399;28;20085;-78
2022/12/06 04:06:23;;;;;;;9.50;4.60;;;4.80;99.90;;;;;;4993770;28;20137;-80
2022/12/06 04:08:49;;;;;;;6.45;4.05;;;4.80;99.90;;;;;;4987662;28;20077;-77
2022/12/06 04:11:15;;;;;;;7.45;4.93;;;4.80;99.90;;;;;;4988168;28;20054;-78
2022/12/06 04:13:40;;;;;;;7.00;4.15;;;4.80;99.90;;;;;;5010134;28;20419;-77
2022/12/06 04:18:09;;;;;;;8.63;4.18;;;4.80;99.90;;;;;;4991254;28;20388;-77
2022/12/06 04:18:52;;;;;;;5.65;4.53;;;4.80;99.90;;;;;;5002633;28;20195;-77
2022/12/06 04:23:58;;;;;;;10.07;4.85;;;4.80;99.90;;;;;;4995607;28;20050;-78
2022/12/06 04:26:24;;;;;;;7.90;5.00;;;4.80;99.90;;;;;;4990122;28;20083;-78
2022/12/06 04:39:50;;;;;;;22.23;5.57;;;4.80;99.90;;;;;;4992127;28;20085;-78
2022/12/06 04:45:01;;;;;;;8.48;4.97;;;4.80;99.90;;;;;;4992023;28;20053;-80
2022/12/06 04:47:26;;;;;;;5.85;4.57;;;4.80;99.90;;;;;;4990735;28;20541;-81
2022/12/06 04:49:52;;;;;;;6.43;4.18;;;4.70;99.90;;;;;;4990379;28;20107;-81
2022/12/06 04:52:18;;;;;;;13.35;5.10;;;4.70;99.90;;;;;;4989714;28;20080;-81
2022/12/06 04:54:44;;;;;;;6.85;4.10;;;4.70;99.90;;;;;;4990005;28;20522;-81
2022/12/06 04:57:12;;;;;;;8.02;4.85;;;4.70;99.90;;;;;;4984912;28;20046;-81
2022/12/06 04:59:39;;;;;;;9.75;4.63;;;4.70;99.90;;;;;;4989551;28;20759;-80
2022/12/06 05:02:06;;;;;;;8.50;3.78;;;4.60;99.90;;;;;;4989710;28;20054;-80
2022/12/06 05:04:32;;;;;;;6.65;4.13;;;4.60;99.90;;;;;;4989222;28;20046;-80
2022/12/06 05:06:58;;;;;;;10.75;4.72;;;4.60;99.90;;;;;;4990241;28;20911;-80
2022/12/06 05:09:24;;;;;;;7.80;4.28;;;4.50;99.90;;;;;;4988859;28;20034;-80
2022/12/06 05:11:50;;;;;;;20.02;5.38;;;4.50;99.90;;;;;;4990480;28;20364;-80
2022/12/06 05:14:15;;;;;;;11.63;4.80;;;4.50;99.90;;;;;;4989545;28;20099;-80
2022/12/06 05:16:41;;;;;;;9.32;5.03;;;4.40;99.90;;;;;;4989812;28;20049;-80
2022/12/06 05:19:07;;;;;;;10.20;4.72;;;4.40;99.90;;;;;;4989099;28;20080;-80
2022/12/06 05:21:33;;;;;;;7.15;4.45;;;4.40;99.90;;;;;;4989669;28;20052;-80
2022/12/06 05:23:58;;;;;;;6.65;4.90;;;4.40;99.90;;;;;;4989621;28;20450;-80
2022/12/06 05:26:27;;;;;;;7.25;4.80;;;4.30;99.90;;;;;;4989006;28;20050;-80
2022/12/06 05:28:53;;;;;;;9.57;4.85;;;4.30;99.90;;;;;;4989338;28;20046;-80
2022/12/06 05:31:19;;;;;;;9.82;4.78;;;4.30;99.90;;;;;;4989772;28;20702;-81
2022/12/06 05:33:45;;;;;;;8.05;5.18;;;4.30;99.90;;;;;;4988313;28;20060;-80
2022/12/06 05:36:20;;;;;;;9.73;4.68;;;4.30;99.90;;;;;;4989105;28;20038;-80
2022/12/06 05:38:47;;;;;;;10.05;4.70;;;4.30;99.90;;;;;;4988957;28;20050;-80
2022/12/06 05:41:13;;;;;;;5.90;3.90;;;4.30;99.90;;;;;;4988388;28;20076;-80
2022/12/06 05:43:39;;;;;;;7.15;4.32;;;4.30;99.90;;;;;;4989487;28;20046;-80
2022/12/06 05:46:05;;;;;;;8.65;3.90;;;4.30;99.90;;;;;;4988899;28;20057;-80
2022/12/06 05:48:31;;;;;;;6.88;3.85;;;4.30;99.90;;;;;;4972477;28;20050;-80
2022/12/06 05:50:57;;;;;;;9.00;4.75;;;4.20;99.90;;;;;;4988953;28;20041;-80
2022/12/06 05:53:23;;;;;;;10.77;5.38;;;4.30;99.90;;;;;;4988933;28;20042;-80
2022/12/06 05:55:49;;;;;;;11.38;5.63;;;4.30;99.90;;;;;;4988900;28;20049;-80
2022/12/06 05:58:14;;;;;;;10.75;5.70;;;4.20;99.90;;;;;;4989234;28;20443;-78
2022/12/06 06:00:40;;;;;;;11.35;4.28;;;4.30;99.90;;;;;;4989131;28;20125;-78
2022/12/06 06:03:07;;;;;;;10.00;4.30;;;4.30;99.90;;;;;;4988127;28;20048;-78
2022/12/06 06:05:32;;;;;;;19.63;4.13;;;4.20;99.90;;;;;;4988547;28;20049;-78
2022/12/06 06:07:58;;;;;;;9.27;5.18;;;4.30;99.90;;;;;;4989245;28;20054;-78
2022/12/06 06:10:24;;;;;;;9.52;4.78;;;4.20;99.90;;;;;;4984682;28;20046;-78
2022/12/06 06:12:51;;;;;;;8.13;5.32;;;4.20;99.90;;;;;;4983513;28;20558;-78
2022/12/06 06:15:17;;;;;;;9.07;5.47;;;4.20;99.90;;;;;;4987561;28;20054;-78
2022/12/06 06:17:43;;;;;;;11.80;6.03;;;4.20;99.90;;;;;;4988601;28;20593;-78
2022/12/06 06:20:12;;;;;;;13.95;5.53;;;4.20;99.90;;;;;;4990098;28;20122;-78
2022/12/06 06:22:39;;;;;;;14.02;6.05;;;4.20;99.90;;;;;;4992761;28;20065;-78
2022/12/06 06:25:06;;;;;;;9.32;6.18;;;4.20;99.90;;;;;;4991899;28;20117;-78
2022/12/06 06:27:36;;;;;;;9.48;5.80;;;4.20;99.90;;;;;;4976769;28;20772;-78
2022/12/06 06:30:07;;;;;;;14.52;7.18;;;4.20;99.90;;;;;;4992074;28;20543;-78
2022/12/06 06:32:33;;;;;;;12.73;5.80;;;4.20;99.90;;;;;;4992427;28;20083;-78
2022/12/06 06:34:59;;;;;;;11.23;5.07;;;4.20;99.90;;;;;;4991810;28;20052;-78
2022/12/06 06:37:25;;;;;;;10.38;6.78;;;4.20;99.90;;;;;;4992834;28;20042;-78
2022/12/06 06:39:51;;;;;;;16.73;6.57;;;4.20;99.90;;;;;;4992569;28;20050;-78
2022/12/06 06:42:16;;;;;;;11.63;5.97;;;4.20;99.90;;;;;;5010527;28;20042;-77
2022/12/06 06:44:43;;;;;;;11.05;5.40;;;4.10;99.90;;;;;;4991993;28;20049;-78
2022/12/06 06:47:08;;;;;;;13.02;5.93;;;4.20;99.90;;;;;;4980828;28;20050;-78
2022/12/06 06:49:34;;;;;;;12.50;6.47;;;4.10;99.90;;;;;;4992453;28;20045;-78
2022/12/06 06:52:00;;;;;;;12.02;5.95;;;4.10;99.90;;;;;;4992496;28;20660;-78
2022/12/06 06:54:26;;;;;;;7.88;5.88;;;4.10;99.90;;;;;;4992216;28;20535;-78
2022/12/06 06:56:56;;;;;;;10.57;5.85;;;4.20;99.90;;;;;;4992098;28;20053;-77
2022/12/06 06:59:23;;;;;;;13.93;6.55;;;4.20;99.90;;;;;;4972098;28;20046;-78
2022/12/06 07:01:49;;;;;;;7.47;5.70;;;4.10;99.90;;;;;;4992453;28;20064;-78
2022/12/06 07:04:15;;;;;;;11.77;5.78;;;4.10;99.90;;;;;;4975988;28;20054;-78
2022/12/06 07:06:41;;;;;;;11.10;6.20;;;4.10;99.90;;;;;;4987366;28;20827;-78
2022/12/06 07:09:06;;;;;;;12.63;6.05;;;4.10;99.90;;;;;;4983449;28;20486;-78
2022/12/06 07:11:32;;;;;;;14.60;6.57;;;4.00;99.90;;;;;;4975964;28;20042;-78
2022/12/06 07:13:57;;;;;;;9.55;5.13;;;4.00;99.90;;;;;;4992115;28;20058;-78
2022/12/06 07:16:23;;;;;;;10.98;6.68;;;4.00;99.90;;;;;;4992242;28;20042;-78
2022/12/06 07:18:49;;;;;;;11.43;6.30;;;4.00;99.90;;;;;;4991504;28;20112;-78
2022/12/06 07:21:15;;;;;;;9.40;5.32;;;3.90;99.90;;;;;;4991975;28;20153;-78
2022/12/06 07:23:41;;;;;;;9.98;5.47;;;3.90;99.90;;;;;;4991687;28;20529;-78
2022/12/06 07:26:20;;;;;;;7.53;5.38;;;3.90;99.90;;;;;;4993456;28;20601;-80
2022/12/06 07:28:47;;;;;;;12.00;6.13;;;3.90;99.90;;;;;;4979953;28;20137;-80
2022/12/06 07:31:20;;;;;;;10.57;5.82;;;3.80;99.90;;;;;;4991912;28;20049;-80
2022/12/06 07:33:46;;;;;;;8.13;5.20;;;3.70;99.90;;;;;;4976299;28;20125;-80
2022/12/06 07:36:14;;;;;;;10.23;5.63;;;3.70;99.90;;;;;;4992326;28;20469;-80
2022/12/06 07:38:41;;;;;;;13.10;5.53;;;3.60;99.90;;;;;;4992291;28;20070;-80
2022/12/06 07:46:40;;;;;;;7.15;4.70;;;3.40;99.90;;;;;;4992536;28;20042;-80
2022/12/06 07:49:07;;;;;;;9.52;5.03;;;3.30;99.90;;;;;;4992170;28;20128;-80
2022/12/06 07:51:33;;;;;;;12.63;5.20;;;3.30;99.90;;;;;;4976258;28;20034;-80
2022/12/06 07:53:59;;;;;;;8.77;5.65;;;3.30;99.90;;;;;;4992437;28;20041;-81
2022/12/06 07:56:26;;;;;;;9.02;5.30;;;3.20;99.90;;;;;;4986769;28;20584;-80
2022/12/06 07:58:54;;;;;;;6.38;4.85;;;3.10;99.90;;;;;;4991634;28;20050;-80
2022/12/06 08:01:19;;;;;;;7.37;4.97;;;3.10;99.90;;;;;;4986541;28;20073;-80
2022/12/06 08:03:45;;;;;;;8.07;5.72;;;3.00;99.90;;;;;;4990829;28;20165;-79
2022/12/06 08:06:11;;;;;;;7.32;4.90;;;3.00;99.90;;;;;;4987626;28;20054;-79
2022/12/06 08:08:37;;;;;;;10.30;5.53;;;2.90;99.90;;;;;;4991745;28;20081;-79
2022/12/06 08:11:05;;;;;;;10.30;5.10;;;2.90;99.90;;;;;;4990940;28;20077;-79
2022/12/06 08:13:32;;;;;;;6.88;5.32;;;2.90;99.90;;;;;;4991646;28;20694;-78
2022/12/06 08:15:58;;;;;;;5.82;5.22;;;2.80;99.90;;;;;;4991416;28;20534;-79
2022/12/06 08:18:24;;;;;;;9.48;6.03;;;2.80;99.90;;;;;;4991072;28;20046;-78
2022/12/06 08:20:52;;;;;;;11.38;6.38;;;2.70;99.90;;;;;;4990664;28;20511;-78
2022/12/06 08:23:18;;;;;;;9.07;5.65;;;2.70;99.90;;;;;;4990896;28;20057;-78
2022/12/06 08:25:43;;;;;;;10.13;5.97;;;2.70;99.90;;;;;;4991374;28;20087;-79
2022/12/06 08:28:10;;;;;;;8.00;5.85;;;2.70;99.90;;;;;;4984784;28;20066;-77
2022/12/06 08:30:40;;;;;;;5.95;3.22;;;2.70;99.90;;;;;;4966863;28;20069;-78
2022/12/06 08:33:05;;;;;;;12.15;6.03;;;2.60;99.90;;;;;;4991099;28;20050;-78
2022/12/06 08:35:35;;;;;;;7.10;5.50;;;2.60;99.90;;;;;;5001253;28;20104;-77
2022/12/06 08:38:01;;;;;;;10.65;5.25;;;2.60;99.90;;;;;;4989222;28;20507;-78
2022/12/06 08:40:27;;;;;;;9.77;6.32;;;2.60;99.90;;;;;;4990251;28;20518;-78
2022/12/06 08:42:52;;;;;;;10.40;6.50;;;2.60;99.90;;;;;;4988775;28;20045;-78
2022/12/06 08:45:18;;;;;;;14.10;7.55;;;2.60;99.90;;;;;;4988193;28;20054;-78
2022/12/06 08:47:45;;;;;;;8.45;6.28;;;2.60;99.90;;;;;;4987844;28;20117;-78
2022/12/06 08:50:10;;;;;;;15.13;6.88;;;2.60;99.90;;;;;;4988297;28;20482;-78
2022/12/06 08:52:36;;;;;;;10.32;7.28;;;2.60;99.90;;;;;;5007605;28;20115;-78
2022/12/06 08:55:02;;;;;;;12.52;7.85;;;2.60;99.90;;;;;;4988938;28;20503;-79
2022/12/06 08:57:27;;;;;;;13.18;7.90;;;2.60;99.90;;;;;;4989451;28;20038;-80
2022/12/06 08:59:54;;;;;;;4.90;2.58;;;2.60;99.90;;;;;;4989032;28;20045;-81
2022/12/06 09:02:20;;;;;;;10.93;7.53;;;2.60;99.90;;;;;;4979692;28;20050;-80
2022/12/06 09:04:48;;;;;;;12.43;7.45;;;2.60;99.90;;;;;;4986539;28;20503;-80
2022/12/06 09:07:14;;;;;;;12.90;8.95;;;2.70;99.90;;;;;;4989764;28;20038;-80
2022/12/06 09:09:40;;;;;;;12.93;8.30;;;2.70;99.90;;;;;;4990699;28;20046;-80
2022/12/06 09:12:05;;;;;;;13.77;8.38;;;2.80;99.90;;;;;;4989911;28;20049;-80
2022/12/06 09:14:31;;;;;;;12.23;8.70;;;2.80;99.90;;;;;;4990314;28;20149;-79
2022/12/06 09:16:57;;;;;;;10.85;8.43;;;2.90;99.90;;;;;;4984911;28;20477;-79
2022/12/06 09:19:23;;;;;;;15.02;8.95;;;2.90;99.90;;;;;;4989950;28;20045;-79
2022/12/06 09:21:49;;;;;;;11.95;8.45;;;3.00;99.90;;;;;;4990619;28;20202;-79
2022/12/06 09:24:17;;;;;;;16.85;9.00;;;3.00;99.90;;;;;;4986448;28;20050;-81
2022/12/06 09:26:43;;;;;;;6.28;3.13;;;3.10;99.90;;;;;;4987662;28;20096;-79
2022/12/06 09:29:10;;;;;;;15.88;9.50;;;3.20;99.90;;;;;;4987580;28;20042;-77
2022/12/06 09:31:39;;;;;;;11.48;7.53;;;3.20;99.90;;;;;;4989091;28;20037;-78
2022/12/06 09:34:08;;;;;;;17.73;9.88;;;3.20;99.90;;;;;;5006383;28;20057;-77
2022/12/06 09:36:38;;;;;;;14.43;8.57;;;3.30;99.90;;;;;;4990030;28;20415;-77
2022/12/06 09:39:11;;;;;;;15.55;8.63;;;3.30;99.90;;;;;;4988162;28;20054;-77
2022/12/06 09:42:04;;;;;;;21.42;8.63;;;3.40;99.90;;;;;;4989850;28;20049;-77
2022/12/06 09:44:46;;;;;;;14.48;9.13;;;3.60;99.90;;;;;;4989629;28;20085;-78
2022/12/06 09:47:15;;;;;;;13.07;7.82;;;3.70;99.90;;;;;;4983097;28;20050;-77
2022/12/06 09:50:09;;;;;;;12.43;8.10;;;3.70;99.90;;;;;;4987251;28;20092;-78
2022/12/06 09:53:06;;;;;;;17.52;7.05;;;3.80;99.90;;;;;;4967456;28;20057;-78
2022/12/06 09:55:55;;;;;;;16.57;7.80;;;3.90;99.90;;;;;;4982541;28;20132;-78
2022/12/06 09:58:31;;;;;;;13.73;7.93;;;3.90;99.90;;;;;;4990691;28;20045;-79
2022/12/06 10:01:05;;;;;;;11.48;6.72;;;3.90;99.90;;;;;;4992805;28;20099;-79
2022/12/06 10:03:49;;;;;;;14.73;8.35;;;4.00;99.90;;;;;;4997209;28;20050;-79
2022/12/06 10:06:19;;;;;;;11.57;7.15;;;4.00;99.90;;;;;;4987604;28;20477;-80
2022/12/06 10:09:04;;;;;;;9.27;7.15;;;4.10;99.90;;;;;;4995300;28;20056;-80
2022/12/06 10:11:51;;;;;;;8.43;6.90;;;4.20;99.90;;;;;;4988681;28;20065;-79
2022/12/06 10:14:37;;;;;;;16.15;7.72;;;4.30;99.90;;;;;;4989285;28;20052;-79
2022/12/06 10:17:21;;;;;;;23.17;8.25;;;4.40;99.90;;;;;;4975229;28;20103;-78
2022/12/06 10:20:09;;;;;;;12.10;7.82;;;4.50;99.90;;;;;;5003019;28;20734;-79
2022/12/06 10:23:05;;;;;;;17.33;6.72;;;4.60;99.90;;;;;;4985399;28;20050;-78
2022/12/06 10:25:40;;;;;;;12.30;7.18;;;4.60;99.90;;;;;;4991236;28;20050;-78
2022/12/06 10:28:11;;;;;;;9.82;7.22;;;4.70;99.90;;;;;;4993274;28;20060;-77
2022/12/06 10:30:48;;;;;;;12.02;7.40;;;4.70;99.90;;;;;;4989233;28;20467;-77
2022/12/06 10:33:26;;;;;;;12.15;7.40;;;4.80;99.90;;;;;;4991188;28;20143;-77
2022/12/06 10:36:01;;;;;;;17.40;7.60;;;4.80;99.90;;;;;;4992802;28;20081;-79
2022/12/06 10:38:40;;;;;;;11.95;7.07;;;4.90;99.90;;;;;;4991402;28;20378;-77
2022/12/06 10:41:46;;;;;;;9.95;7.30;;;4.90;99.90;;;;;;4995848;28;20042;-78
2022/12/06 10:44:26;;;;;;;11.93;7.22;;;4.90;99.90;;;;;;4965682;28;20050;-78
2022/12/06 10:47:03;;;;;;;8.90;6.95;;;5.00;99.90;;;;;;4992739;28;20495;-78
2022/12/06 10:49:38;;;;;;;9.20;6.45;;;5.10;99.90;;;;;;4992299;28;20458;-77
2022/12/06 10:52:16;;;;;;;11.85;6.90;;;5.10;99.90;;;;;;4987983;28;20058;-75
2022/12/06 10:54:59;;;;;;;12.05;6.55;;;5.10;99.90;;;;;;5006604;28;20109;-79
2022/12/06 10:57:30;;;;;;;12.00;6.18;;;5.20;99.90;;;;;;4994490;28;20418;-77
2022/12/06 10:59:55;;;;;;;7.95;5.10;;;5.30;99.90;;;;;;4975554;28;20084;-77
2022/12/06 11:02:36;;;;;;;15.45;5.13;;;5.40;99.90;;;;;;4980972;28;20446;-78
2022/12/06 11:05:05;;;;;;;8.48;6.07;;;5.50;99.90;;;;;;4993593;28;20054;-79
2022/12/06 11:07:40;;;;;;;11.68;5.07;;;5.60;99.90;;;;;;4989677;28;20046;-78
2022/12/06 11:10:21;;;;;;;11.90;5.25;;;5.70;99.90;;;;;;4990546;28;20072;-79
2022/12/06 11:12:48;;;;;;;11.40;5.45;;;5.80;99.90;;;;;;4992040;28;20050;-78
2022/12/06 11:15:27;;;;;;;11.05;4.80;;;5.90;99.90;;;;;;4991639;28;20054;-78
2022/12/06 11:18:02;;;;;;;9.95;5.53;;;5.90;99.90;;;;;;4992280;28;20120;-79
2022/12/06 11:20:34;;;;;;;7.93;5.13;;;6.10;99.90;;;;;;4992696;28;20117;-78
2022/12/06 11:23:28;;;;;;;12.95;5.38;;;6.20;99.90;;;;;;4993365;28;20061;-78
2022/12/06 11:26:17;;;;;;;9.48;4.35;;;6.30;99.90;;;;;;4984421;28;20058;-77
2022/12/06 11:29:06;;;;;;;10.25;5.15;;;6.50;99.90;;;;;;4989081;28;20447;-78
2022/12/06 11:31:37;;;;;;;6.65;4.13;;;6.60;99.90;;;;;;4986134;28;20169;-79
2022/12/06 11:34:05;;;;;;;8.98;4.68;;;6.80;99.90;;;;;;4987636;28;20049;-79
2022/12/06 11:36:31;;;;;;;7.45;4.60;;;6.80;99.90;;;;;;4989767;28;20241;-78
2022/12/06 11:38:58;;;;;;;8.50;4.53;;;6.90;99.90;;;;;;4992713;28;20128;-78
2022/12/06 11:41:32;;;;;;;7.10;4.35;;;6.90;99.90;;;;;;4992715;28;20061;-78
2022/12/06 11:43:58;;;;;;;14.57;4.35;;;6.90;99.90;;;;;;4992176;28;20053;-78
2022/12/06 11:46:26;;;;;;;6.15;4.88;;;6.90;99.90;;;;;;4991021;28;20228;-76
2022/12/06 11:48:55;;;;;;;11.45;4.60;;;6.90;99.90;;;;;;5004630;28;20046;-76
2022/12/06 11:51:23;;;;;;;9.32;4.03;;;6.90;99.90;;;;;;5003726;28;20049;-77
2022/12/06 11:54:03;;;;;;;;;;;6.90;99.90;;;;;;5010060;28;20058;-77
2022/12/06 11:56:32;;;;;;;7.50;4.75;;;6.80;99.90;;;;;;4988257;28;20443;-78
2022/12/06 11:59:19;;;;;;;7.30;4.40;;;6.80;99.90;;;;;;4992637;28;20065;-79
2022/12/06 12:01:47;;;;;;;9.05;4.70;;;6.70;99.90;;;;;;4997037;28;20138;-77
2022/12/06 12:04:43;;;;;;;11.18;5.30;;;6.70;99.90;;;;;;4990459;28;20499;-78
2022/12/06 12:07:18;;;;;;;10.48;4.47;;;6.70;99.90;;;;;;5000262;28;20541;-78
2022/12/06 12:10:23;;;;;;;10.77;4.50;;;6.70;99.90;;;;;;4977753;28;20107;-77
2022/12/06 12:15:34;;;;;;;13.65;4.57;;;6.60;99.90;;;;;;4990018;28;20049;-76
2022/12/06 12:18:03;;;;;;;5.38;4.47;;;6.60;99.90;;;;;;4990673;28;20121;-78
2022/12/06 12:20:37;;;;;;;6.15;5.13;;;6.60;99.90;;;;;;4991792;28;20125;-77
2022/12/06 12:23:15;;;;;;;9.18;4.72;;;6.60;99.90;;;;;;4995213;28;20053;-78
2022/12/06 12:26:10;;;;;;;7.03;4.72;;;6.70;99.90;;;;;;4994804;28;20053;-78
2022/12/06 12:28:37;;;;;;;9.68;5.30;;;6.70;99.90;;;;;;4988482;28;20050;-78
2022/12/06 12:31:25;;;;;;;7.25;4.63;;;6.80;99.90;;;;;;4988715;28;21071;-78
2022/12/06 12:34:17;;;;;;;8.68;5.65;;;6.90;99.90;;;;;;4975401;28;20049;-78
2022/12/06 12:36:53;;;;;;;10.60;4.68;;;6.90;99.90;;;;;;4989120;28;20050;-79
2022/12/06 12:39:48;;;;;;;8.07;4.70;;;6.90;99.90;;;;;;4990438;28;20510;-79
2022/12/06 12:42:31;;;;;;;6.35;4.35;;;6.90;99.90;;;;;;4990844;28;20093;-79
2022/12/06 12:45:04;;;;;;;8.45;5.72;;;6.90;99.90;;;;;;4991172;28;20057;-79
2022/12/06 12:47:31;;;;;;;9.88;4.45;;;6.90;99.90;;;;;;4990760;28;20050;-79
2022/12/06 12:50:19;;;;;;;7.57;4.07;;;6.90;99.90;;;;;;4991271;28;20630;-79
2022/12/06 12:52:45;;;;;;;6.38;4.35;;;6.90;99.90;;;;;;4991406;28;20077;-79
2022/12/06 12:55:16;;;;;;;8.40;5.07;;;6.90;99.90;;;;;;4986946;28;20057;-79
2022/12/06 12:57:54;;;;;;;10.27;5.28;;;6.80;99.90;;;;;;4990973;28;20046;-79
2022/12/06 13:00:37;;;;;;;6.85;3.92;;;6.90;99.90;;;;;;4988920;28;20060;-79
2022/12/06 13:03:09;;;;;;;8.20;4.28;;;6.80;99.90;;;;;;5002562;28;20037;-78
2022/12/06 13:05:37;;;;;;;5.68;4.13;;;6.80;99.90;;;;;;4980872;28;20076;-78
2022/12/06 13:08:27;;;;;;;4.22;3.35;;;6.80;99.90;;;;;;4989354;28;20525;-78
2022/12/06 13:10:57;;;;;;;6.20;3.78;;;6.80;99.90;;;;;;4992111;28;20100;-78
2022/12/06 13:13:39;;;;;;;6.32;4.72;;;6.80;99.90;;;;;;4995264;28;21617;-77
2022/12/06 13:16:11;;;;;;;4.70;4.03;;;6.80;99.90;;;;;;4988202;28;20102;-78
2022/12/06 13:18:46;;;;;;;8.15;3.50;;;6.80;99.90;;;;;;4982013;28;20120;-78
2022/12/06 13:21:34;;;;;;;6.55;4.28;;;6.80;99.90;;;;;;4983936;28;20085;-79
2022/12/06 13:24:09;;;;;;;17.10;7.72;;;6.80;99.90;;;;;;4988406;28;20138;-79
2022/12/06 13:27:04;;;;;;;5.78;4.13;;;6.70;99.90;;;;;;4997546;28;20050;-77
2022/12/06 13:29:54;;;;;;;6.00;3.70;;;6.70;99.90;;;;;;4995574;28;20050;-77
2022/12/06 13:32:24;;;;;;;4.85;3.70;;;6.80;99.90;;;;;;4990982;28;20050;-77
2022/12/06 13:34:58;;;;;;;8.57;4.40;;;6.80;99.90;;;;;;4989790;28;20145;-78
2022/12/06 13:38:00;;;;;;;6.10;3.67;;;6.80;99.90;;;;;;4990867;28;20080;-78